Time;durP1;ratioP1;P1;durP2;ratioP2;P2;SDS_P1;SDS_P2;PMS_P1;PMS_P2;Temp;Humidity;BMP_temperature;BMP_pressure;BME280_temperature;BME280_humidity;BME280_pressure;Samples;Min_cycle;Max_cycle;Signal;HPM_P1;HPM_P2
2023/07/10 00:00:49;;;;;;;7.78;4.32;;;;;;;19.49;84.83;101698.59;4999792;28;20029;-75
2023/07/10 00:03:15;;;;;;;9.32;4.65;;;;;;;19.43;84.19;101681.63;5021256;28;20033;-77
2023/07/10 00:05:40;;;;;;;8.23;4.30;;;;;;;19.41;84.51;101685.75;5025462;28;20037;-77
2023/07/10 00:08:06;;;;;;;9.55;4.25;;;;;;;19.41;83.74;101680.31;4996161;28;20440;-76
2023/07/10 00:10:31;;;;;;;10.10;4.65;;;;;;;19.36;84.05;101683.94;5029602;28;20121;-75
2023/07/10 00:12:57;;;;;;;5.90;3.97;;;;;;;19.35;84.33;101687.78;4995736;28;20508;-76
2023/07/10 00:15:23;;;;;;;;;;;;;;;19.32;84.65;101693.84;4996785;28;20044;-79
2023/07/10 00:17:51;;;;;;;6.55;3.85;;;;;;;19.27;83.72;101702.09;5010711;28;19917;-77
2023/07/10 00:20:20;;;;;;;7.53;4.00;;;;;;;19.26;82.84;101705.91;5027478;28;20100;-76
2023/07/10 00:22:47;;;;;;;7.47;3.85;;;;;;;19.26;82.99;101695.84;5030868;28;20047;-79
2023/07/10 00:25:17;;;;;;;6.68;4.43;;;;;;;19.27;82.75;101697.47;5028044;28;20029;-76
2023/07/10 00:27:51;;;;;;;8.10;5.20;;;;;;;19.26;84.89;101693.13;5001054;28;20513;-78
2023/07/10 00:30:24;;;;;;;8.55;4.78;;;;;;;19.26;84.47;101686.91;4985440;28;20407;-76
2023/07/10 00:32:52;;;;;;;6.47;4.32;;;;;;;19.23;84.42;101682.06;5025603;28;20037;-77
2023/07/10 00:35:27;;;;;;;7.30;3.95;;;;;;;19.18;83.87;101679.47;4979279;28;20056;-77
2023/07/10 00:38:02;;;;;;;10.27;4.90;;;;;;;19.19;84.02;101690.03;5010834;28;20041;-77
2023/07/10 00:40:33;;;;;;;9.73;4.82;;;;;;;19.16;85.00;101678.97;4998075;28;20044;-77
2023/07/10 00:43:13;;;;;;;7.82;3.80;;;;;;;19.15;84.28;101677.38;5029476;28;20068;-77
2023/07/10 00:45:38;;;;;;;6.40;3.55;;;;;;;19.12;84.47;101670.63;5033126;28;20518;-77
2023/07/10 00:48:13;;;;;;;;;;;;;;;19.13;85.31;101674.97;4980246;28;20049;-77
2023/07/10 00:50:48;;;;;;;6.20;3.80;;;;;;;19.08;84.09;101672.34;5029437;28;19962;-77
2023/07/10 00:53:23;;;;;;;8.85;4.47;;;;;;;19.09;83.89;101674.75;5042008;28;20025;-76
2023/07/10 00:55:53;;;;;;;8.07;4.47;;;;;;;19.11;84.33;101677.19;5032262;28;20037;-75
2023/07/10 00:58:29;;;;;;;8.30;4.95;;;;;;;19.12;84.41;101673.34;4995533;28;20584;-76
2023/07/10 01:01:19;;;;;;;4.20;3.45;;;;;;;19.13;84.75;101668.72;4992963;28;20051;-80
2023/07/10 01:03:46;;;;;;;;;;;;;;;19.12;86.34;101659.78;5010220;28;20033;-76
2023/07/10 01:06:29;;;;;;;6.38;4.35;;;;;;;19.07;84.79;101652.53;4991244;28;20063;-77
2023/07/10 01:08:59;;;;;;;7.72;4.38;;;;;;;19.07;84.54;101665.31;5011168;28;20039;-77
2023/07/10 01:11:26;;;;;;;7.10;4.10;;;;;;;19.07;84.65;101659.88;5015053;28;20501;-76
2023/07/10 01:13:54;;;;;;;6.90;3.95;;;;;;;19.08;84.28;101656.06;5014973;28;20041;-77
2023/07/10 01:16:22;;;;;;;10.73;4.70;;;;;;;19.08;84.62;101650.63;4999250;28;20038;-77
2023/07/10 01:18:51;;;;;;;9.73;4.05;;;;;;;19.06;84.96;101642.00;4995457;28;20051;-77
2023/07/10 01:21:33;;;;;;;7.57;4.97;;;;;;;19.04;85.58;101645.03;4996125;28;20052;-76
2023/07/10 01:24:02;;;;;;;7.90;5.22;;;;;;;19.02;86.10;101657.28;5013947;28;20029;-77
2023/07/10 01:26:30;;;;;;;7.13;3.22;;;;;;;19.04;84.52;101655.06;5015860;28;20048;-77
2023/07/10 01:29:00;;;;;;;7.95;3.97;;;;;;;19.07;84.93;101643.59;4984037;28;20091;-78
2023/07/10 01:31:28;;;;;;;7.18;4.57;;;;;;;19.08;84.94;101650.63;5013693;28;20057;-75
2023/07/10 01:33:57;;;;;;;9.52;4.97;;;;;;;19.07;85.12;101641.69;5031567;28;20053;-78
2023/07/10 01:36:31;;;;;;;7.38;5.18;;;;;;;19.03;86.40;101638.00;5014973;28;20087;-79
2023/07/10 01:39:38;;;;;;;5.15;4.05;;;;;;;19.03;85.72;101643.41;4981471;28;20041;-79
2023/07/10 01:42:04;;;;;;;6.53;4.25;;;;;;;19.01;84.74;101639.38;4999409;28;20038;-78
2023/07/10 01:44:33;;;;;;;5.03;3.75;;;;;;;19.04;84.68;101650.44;4999381;28;20044;-80
2023/07/10 01:47:02;;;;;;;7.20;4.68;;;;;;;19.06;85.17;101652.84;5006879;28;20033;-80
2023/07/10 01:49:41;;;;;;;5.63;4.05;;;;;;;19.05;84.72;101643.91;5035693;28;20036;-78
2023/07/10 01:52:10;;;;;;;13.73;5.32;;;;;;;19.06;85.56;101658.28;4992522;28;20179;-77
2023/07/10 01:54:36;;;;;;;6.90;4.43;;;;;;;19.06;85.36;101663.72;4997597;28;20037;-76
2023/07/10 01:57:03;;;;;;;6.30;4.68;;;;;;;19.04;86.22;101664.03;5018649;28;20072;-77
2023/07/10 01:59:29;;;;;;;;;;;;;;;19.07;86.33;101671.53;5014872;28;20053;-77
2023/07/10 02:01:56;;;;;;;7.15;5.60;;;;;;;19.04;86.61;101664.03;5025752;23;19920;-75
2023/07/10 02:04:22;;;;;;;8.65;5.40;;;;;;;19.05;87.53;101667.53;5024159;28;20155;-73
2023/07/10 02:06:48;;;;;;;11.57;5.07;;;;;;;19.03;87.11;101664.31;5016421;28;20084;-73
2023/07/10 02:09:17;;;;;;;;;;;;;;;19.05;87.38;101656.69;5021952;28;20041;-73
2023/07/10 02:11:42;;;;;;;8.73;3.78;;;;;;;19.01;85.62;101661.09;5020852;28;19921;-76
2023/07/10 02:14:08;;;;;;;;;;;;;;;19.05;87.01;101656.69;5023118;28;20037;-73
2023/07/10 02:16:35;;;;;;;5.65;4.95;;;;;;;19.02;85.63;101668.13;5020031;28;20381;-73
2023/07/10 02:19:01;;;;;;;8.40;4.90;;;;;;;19.02;86.26;101665.41;5027091;28;20112;-73
2023/07/10 02:21:27;;;;;;;8.05;5.35;;;;;;;18.99;87.17;101660.59;5014088;28;20075;-73
2023/07/10 02:23:53;;;;;;;;;;;;;;;19.01;86.66;101661.09;5025464;28;20152;-74
2023/07/10 02:26:18;;;;;;;6.90;3.85;;;;;;;18.99;85.40;101655.19;5024087;28;19920;-72
2023/07/10 02:28:44;;;;;;;;;;;;;;;19.02;85.69;101657.28;5027048;28;20131;-73
2023/07/10 02:31:10;;;;;;;7.63;4.65;;;;;;;19.00;84.66;101654.88;5006664;28;19917;-74
2023/07/10 02:33:36;;;;;;;;;;;;;;;19.02;85.59;101658.06;5011000;28;20057;-74
2023/07/10 02:36:03;;;;;;;9.77;4.63;;;;;;;19.01;84.87;101661.91;5025600;28;20392;-72
2023/07/10 02:38:29;;;;;;;13.30;6.20;;;;;;;19.00;86.67;101665.72;5026594;28;20083;-75
2023/07/10 02:40:55;;;;;;;;;;;;;;;19.00;86.34;101678.50;5010934;28;20033;-74
2023/07/10 02:43:21;;;;;;;6.72;5.40;;;;;;;18.98;85.64;101680.72;5021956;28;20707;-74
2023/07/10 02:45:47;;;;;;;6.03;4.97;;;;;;;19.00;85.74;101686.63;5027768;28;20034;-74
2023/07/10 02:48:13;;;;;;;8.95;5.63;;;;;;;19.00;86.00;101692.06;5025959;28;20033;-74
2023/07/10 02:50:38;;;;;;;9.77;5.82;;;;;;;18.99;86.49;101685.84;5006092;28;20860;-74
2023/07/10 02:53:04;;;;;;;7.38;4.90;;;;;;;18.98;86.18;101691.56;5024768;28;20064;-72
2023/07/10 02:55:30;;;;;;;8.65;4.93;;;;;;;18.97;86.71;101693.50;5004787;28;20033;-74
2023/07/10 02:57:55;;;;;;;8.18;6.15;;;;;;;18.97;87.59;101712.50;5027543;28;20413;-73
2023/07/10 03:00:21;;;;;;;8.60;6.65;;;;;;;18.98;88.53;101732.28;5023277;28;20042;-74
2023/07/10 03:02:46;;;;;;;8.00;5.85;;;;;;;18.95;87.94;101730.97;5026050;28;20021;-72
2023/07/10 03:05:12;;;;;;;9.50;5.47;;;;;;;18.95;87.06;101730.97;5021375;28;20068;-74
2023/07/10 03:07:38;;;;;;;10.25;6.30;;;;;;;18.92;87.86;101714.50;5029403;28;20067;-75
2023/07/10 03:10:04;;;;;;;7.07;5.68;;;;;;;18.87;87.47;101709.16;5027081;28;20041;-75
2023/07/10 03:12:30;;;;;;;7.95;6.32;;;;;;;18.86;87.12;101707.56;5026026;28;21824;-75
2023/07/10 03:14:56;;;;;;;8.82;4.97;;;;;;;18.85;86.58;101716.81;4989514;28;20048;-74
2023/07/10 03:17:22;;;;;;;13.77;6.80;;;;;;;18.84;86.67;101720.63;5014244;28;20105;-75
2023/07/10 03:19:50;;;;;;;7.80;4.97;;;;;;;18.83;86.22;101725.22;5024897;28;20040;-74
2023/07/10 03:22:16;;;;;;;7.40;5.70;;;;;;;18.81;86.49;101722.81;5005637;28;20398;-74
2023/07/10 03:24:42;;;;;;;8.60;5.78;;;;;;;18.76;87.04;101712.09;5027055;28;20038;-75
2023/07/10 03:27:09;;;;;;;8.27;6.03;;;;;;;18.73;87.25;101703.72;5005034;28;20036;-74
2023/07/10 03:29:36;;;;;;;7.57;6.32;;;;;;;18.70;87.32;101704.34;5025214;28;20060;-75
2023/07/10 03:32:02;;;;;;;8.70;6.22;;;;;;;18.67;88.15;101703.03;5012071;28;20044;-71
2023/07/10 03:34:28;;;;;;;13.07;7.63;;;;;;;18.62;89.13;101692.22;5020945;28;20056;-73
2023/07/10 03:36:53;;;;;;;;;;;;;;;18.62;88.56;101697.66;5026383;28;20663;-74
2023/07/10 03:39:19;;;;;;;12.68;7.10;;;;;;;18.61;88.59;101700.69;5013857;28;19917;-73
2023/07/10 03:41:45;;;;;;;13.05;5.75;;;;;;;18.60;88.27;101705.31;5042029;28;20033;-74
2023/07/10 03:44:10;;;;;;;;;;;;;;;18.63;89.63;101704.72;5014328;28;20076;-73
2023/07/10 03:46:36;;;;;;;10.40;5.93;;;;;;;18.58;88.80;101710.22;5027435;28;20313;-75
2023/07/10 03:49:03;;;;;;;10.05;5.88;;;;;;;18.63;88.62;101714.75;5025308;28;20033;-72
2023/07/10 03:51:29;;;;;;;8.35;6.38;;;;;;;18.65;89.10;101712.53;5007940;28;20072;-75
2023/07/10 03:53:54;;;;;;;;;;;;;;;18.69;89.78;101714.38;5026744;28;20025;-73
2023/07/10 03:56:20;;;;;;;8.20;5.57;;;;;;;18.65;89.04;101694.34;5004253;28;20278;-74
2023/07/10 03:58:46;;;;;;;10.07;6.40;;;;;;;18.62;89.18;101692.22;4992136;28;20029;-73
2023/07/10 04:01:13;;;;;;;8.52;5.75;;;;;;;18.62;88.85;101684.09;5026273;28;20121;-74
2023/07/10 04:03:39;;;;;;;10.10;6.88;;;;;;;18.64;89.33;101681.91;5025963;28;20553;-74
2023/07/10 04:06:08;;;;;;;7.85;7.03;;;;;;;18.66;89.48;101687.84;5020732;28;20034;-74
2023/07/10 04:08:36;;;;;;;13.02;7.35;;;;;;;18.63;89.80;101661.31;5005374;28;20080;-72
2023/07/10 04:11:06;;;;;;;10.85;7.13;;;;;;;18.62;89.91;101667.81;5021036;28;20096;-75
2023/07/10 04:13:32;;;;;;;14.13;8.38;;;;;;;18.63;89.55;101668.63;5023625;28;20071;-75
2023/07/10 04:16:02;;;;;;;11.75;7.00;;;;;;;18.64;89.14;101673.75;5007511;28;20036;-74
2023/07/10 04:18:29;;;;;;;15.43;7.80;;;;;;;18.65;89.02;101659.09;5011449;28;20105;-73
2023/07/10 04:20:57;;;;;;;6.95;5.60;;;;;;;18.65;88.85;101661.81;5028074;28;20025;-73
2023/07/10 04:23:22;;;;;;;7.70;6.85;;;;;;;18.68;88.81;101657.69;5025830;28;20040;-74
2023/07/10 04:25:48;;;;;;;;;;;;;;;18.70;89.56;101659.03;5041201;28;20048;-74
2023/07/10 04:28:13;;;;;;;6.38;4.72;;;;;;;18.67;88.33;101656.09;5025334;28;20010;-73
2023/07/10 04:30:39;;;;;;;;;;;;;;;18.69;88.91;101654.69;5026425;28;20094;-72
2023/07/10 04:33:08;;;;;;;8.95;5.90;;;;;;;18.69;88.91;101662.81;5023907;28;19917;-73
2023/07/10 04:35:34;;;;;;;7.32;6.63;;;;;;;18.71;88.31;101652.50;5022541;28;20048;-71
2023/07/10 04:38:00;;;;;;;7.70;6.10;;;;;;;18.73;88.49;101660.31;5007769;28;20028;-72
2023/07/10 04:40:26;;;;;;;10.30;7.30;;;;;;;18.74;88.70;101649.16;5023890;28;20021;-73
2023/07/10 04:42:53;;;;;;;6.22;5.63;;;;;;;18.75;88.98;101648.03;5007528;28;20041;-74
2023/07/10 04:45:18;;;;;;;9.23;7.40;;;;;;;18.75;89.79;101637.19;5007144;28;20041;-74
2023/07/10 04:47:44;;;;;;;;;;;;;;;18.79;90.89;101630.06;5026613;28;20044;-73
2023/07/10 04:50:10;;;;;;;10.20;6.53;;;;;;;18.78;89.72;101631.19;5021157;28;20422;-74
2023/07/10 04:52:35;;;;;;;10.32;7.20;;;;;;;18.84;91.11;101629.16;5024415;28;20112;-73
2023/07/10 04:55:02;;;;;;;;;;;;;;;18.89;90.65;101625.53;5023336;28;20037;-73
2023/07/10 04:57:28;;;;;;;8.90;6.38;;;;;;;18.88;89.35;101624.72;5043823;28;19913;-74
2023/07/10 04:59:54;;;;;;;;;;;;;;;18.98;91.30;101621.81;5023080;28;20565;-74
2023/07/10 05:02:19;;;;;;;10.23;8.30;;;;;;;19.00;91.07;101621.50;5025012;28;20000;-74
2023/07/10 05:04:45;;;;;;;;;;;;;;;19.07;91.43;101619.16;5021884;28;20037;-72
2023/07/10 05:07:11;;;;;;;8.77;7.78;;;;;;;19.07;90.15;101603.66;4989633;28;20401;-74
2023/07/10 05:09:36;;;;;;;7.72;6.97;;;;;;;19.11;89.38;101600.38;5019050;28;20095;-74
2023/07/10 05:12:02;;;;;;;10.23;8.70;;;;;;;19.15;89.71;101613.00;5022201;28;20499;-72
2023/07/10 05:14:28;;;;;;;13.35;10.55;;;;;;;19.19;91.24;101619.44;5005570;28;20450;-74
2023/07/10 05:16:53;;;;;;;;;;;;;;;19.21;91.54;101609.06;5029874;28;20037;-75
2023/07/10 05:19:19;;;;;;;9.23;8.25;;;;;;;19.20;91.46;101610.19;5023303;28;20388;-74
2023/07/10 05:21:45;;;;;;;10.52;8.73;;;;;;;19.20;90.57;101599.31;5023256;28;20033;-75
2023/07/10 05:24:10;;;;;;;10.32;8.40;;;;;;;19.25;90.06;101611.97;5022236;28;20034;-72
2023/07/10 05:26:35;;;;;;;;;;;;;;;19.28;90.70;101611.34;5026238;28;20049;-74
2023/07/10 05:29:01;;;;;;;8.93;7.40;;;;;;;19.27;89.88;101618.69;5010988;28;19959;-73
2023/07/10 05:31:27;;;;;;;11.35;9.35;;;;;;;19.34;90.72;101632.66;5024022;28;20670;-73
2023/07/10 05:33:52;;;;;;;;;;;;;;;19.44;91.03;101630.81;5029764;28;20053;-74
2023/07/10 05:36:18;;;;;;;6.95;6.00;;;;;;;19.44;89.68;101642.50;5028011;28;20336;-73
2023/07/10 05:38:48;;;;;;;12.02;9.57;;;;;;;19.55;91.23;101643.03;5029537;28;20114;-74
2023/07/10 05:41:20;;;;;;;12.73;10.23;;;;;;;19.60;91.45;101641.03;5027363;28;20025;-74
2023/07/10 05:43:45;;;;;;;12.70;9.27;;;;;;;19.63;91.11;101634.19;5010509;28;20033;-72
2023/07/10 05:46:11;;;;;;;12.77;9.93;;;;;;;19.65;90.53;101631.97;5025222;28;20037;-76
2023/07/10 05:48:37;;;;;;;;;;;;;;;19.71;90.59;101628.03;5025005;28;20061;-74
2023/07/10 05:51:03;;;;;;;12.35;8.57;;;;;;;19.74;89.63;101640.97;5020445;28;20028;-72
2023/07/10 05:53:29;;;;;;;13.30;10.07;;;;;;;19.75;89.04;101637.16;5026472;28;20068;-73
2023/07/10 05:55:57;;;;;;;12.60;10.15;;;;;;;19.82;89.21;101634.78;5025088;28;20037;-72
2023/07/10 05:58:24;;;;;;;11.10;9.00;;;;;;;19.81;88.09;101637.84;5026532;28;20064;-72
2023/07/10 06:00:53;;;;;;;8.57;7.53;;;;;;;19.86;88.13;101641.22;5024883;28;20032;-73
2023/07/10 06:03:19;;;;;;;10.00;8.63;;;;;;;19.93;88.67;101637.28;5021109;28;20029;-74
2023/07/10 06:05:55;;;;;;;11.73;7.80;;;;;;;20.01;88.66;101636.50;4988369;28;20052;-72
2023/07/10 06:08:22;;;;;;;10.57;8.07;;;;;;;20.07;88.99;101629.84;5023500;28;20033;-74
2023/07/10 06:10:48;;;;;;;12.18;9.40;;;;;;;20.11;88.62;101631.59;5024065;28;20507;-72
2023/07/10 06:13:14;;;;;;;13.48;9.27;;;;;;;20.14;88.83;101633.72;4993366;28;20045;-73
2023/07/10 06:15:45;;;;;;;13.70;9.77;;;;;;;20.20;88.33;101631.66;5025248;28;20033;-72
2023/07/10 06:18:10;;;;;;;12.45;9.15;;;;;;;20.26;88.80;101632.34;5029441;28;20025;-73
2023/07/10 06:20:36;;;;;;;14.98;11.15;;;;;;;20.31;88.48;101632.97;5023460;28;20033;-74
2023/07/10 06:23:02;;;;;;;12.27;10.82;;;;;;;20.36;88.92;101630.13;5008046;28;20041;-72
2023/07/10 06:25:27;;;;;;;10.85;9.18;;;;;;;20.39;88.59;101634.94;5024676;28;20040;-74
2023/07/10 06:27:53;;;;;;;13.32;10.32;;;;;;;20.42;88.52;101619.91;5029313;28;21473;-74
2023/07/10 06:30:19;;;;;;;13.88;9.75;;;;;;;20.40;87.54;101614.78;5007067;28;20550;-72
2023/07/10 06:32:44;;;;;;;11.45;9.20;;;;;;;20.44;88.08;101642.16;5027909;28;20416;-72
2023/07/10 06:35:13;;;;;;;13.73;10.63;;;;;;;20.48;88.75;101642.38;5011426;28;20037;-72
2023/07/10 06:37:40;;;;;;;13.55;10.18;;;;;;;20.52;89.12;101654.22;5025001;28;20152;-76
2023/07/10 06:40:18;;;;;;;11.60;9.77;;;;;;;20.54;88.72;101655.53;5024613;28;20033;-73
2023/07/10 06:42:44;;;;;;;11.38;10.20;;;;;;;20.59;90.06;101657.28;5022307;28;20076;-75
2023/07/10 06:45:13;;;;;;;20.42;12.45;;;;;;;20.57;89.56;101654.88;5000751;28;20030;-72
2023/07/10 06:47:42;;;;;;;15.13;10.57;;;;;;;20.58;89.48;101648.31;5027059;28;20095;-73
2023/07/10 06:50:09;;;;;;;12.20;10.40;;;;;;;20.61;89.11;101630.56;5024285;28;20037;-73
2023/07/10 06:52:38;;;;;;;10.95;9.40;;;;;;;20.56;87.54;101627.97;5023916;28;20110;-76
2023/07/10 06:55:05;;;;;;;12.23;9.77;;;;;;;20.57;88.95;101635.81;5013261;28;20044;-74
2023/07/10 06:57:30;;;;;;;14.45;10.32;;;;;;;20.57;88.97;101621.41;5023190;28;20030;-74
2023/07/10 06:59:56;;;;;;;16.55;12.18;;;;;;;20.48;88.75;101615.97;5029772;28;20055;-73
2023/07/10 07:02:21;;;;;;;24.67;14.20;;;;;;;20.44;89.32;101648.41;5021791;28;20156;-73
2023/07/10 07:04:47;;;;;;;16.90;12.00;;;;;;;20.42;89.22;101637.03;5021198;28;20128;-73
2023/07/10 07:07:12;;;;;;;21.83;14.13;;;;;;;20.40;89.93;101622.16;5024801;28;20060;-72
2023/07/10 07:09:38;;;;;;;18.45;16.33;;;;;;;20.25;89.43;101645.09;5021406;28;20030;-73
2023/07/10 07:12:04;;;;;;;17.92;15.10;;;;;;;20.19;89.72;101646.38;5036998;28;20394;-73
2023/07/10 07:14:31;;;;;;;20.08;14.23;;;;;;;20.17;89.51;101659.47;5025817;28;20042;-74
2023/07/10 07:16:56;;;;;;;18.17;14.55;;;;;;;20.12;89.83;101656.91;5028955;28;20037;-72
2023/07/10 07:19:22;;;;;;;14.70;13.18;;;;;;;20.06;90.63;101669.81;5031950;28;20095;-72
2023/07/10 07:21:47;;;;;;;15.38;12.73;;;;;;;20.01;90.50;101666.41;5024497;28;20115;-71
2023/07/10 07:24:13;;;;;;;;;;;;;;;20.01;90.47;101660.97;5022088;28;20121;-72
2023/07/10 07:26:38;;;;;;;16.98;14.32;;;;;;;19.98;90.42;101658.88;5025197;28;19921;-73
2023/07/10 07:29:04;;;;;;;16.75;14.30;;;;;;;20.05;89.77;101654.63;5026058;28;20025;-72
2023/07/10 07:31:30;;;;;;;16.60;14.35;;;;;;;20.14;90.42;101643.78;4992193;28;20969;-71
2023/07/10 07:33:55;;;;;;;20.83;17.58;;;;;;;20.28;91.28;101641.78;5025162;28;20158;-72
2023/07/10 07:36:21;;;;;;;17.40;14.40;;;;;;;20.23;89.52;101654.69;5006473;28;20042;-73
2023/07/10 07:38:46;;;;;;;17.60;15.05;;;;;;;20.24;89.87;101650.84;5010426;28;20033;-72
2023/07/10 07:41:13;;;;;;;19.63;15.68;;;;;;;20.24;90.07;101650.84;5025220;28;20040;-71
2023/07/10 07:43:39;;;;;;;17.00;12.98;;;;;;;20.29;90.37;101656.16;5020597;28;20549;-73
2023/07/10 07:46:05;;;;;;;15.73;12.10;;;;;;;20.29;89.38;101661.59;5023445;28;20079;-74
2023/07/10 07:48:30;;;;;;;16.85;13.75;;;;;;;20.27;90.27;101664.66;5024535;28;20033;-72
2023/07/10 07:51:02;;;;;;;16.20;13.10;;;;;;;20.36;89.51;101662.75;5025640;28;20036;-73
2023/07/10 07:53:31;;;;;;;16.80;13.48;;;;;;;20.45;89.95;101665.53;5022905;28;20116;-73
2023/07/10 07:55:57;;;;;;;15.50;12.15;;;;;;;20.53;89.92;101677.59;5019272;28;20086;-75
2023/07/10 07:58:22;;;;;;;15.30;13.32;;;;;;;20.53;89.30;101683.03;5024185;28;20033;-74
2023/07/10 08:00:49;;;;;;;18.63;16.50;;;;;;;20.58;90.71;101675.53;5034859;23;20049;-77
2023/07/10 08:03:15;;;;;;;20.05;13.93;;;;;;;20.61;89.95;101690.44;5038915;28;20033;-76
2023/07/10 08:05:41;;;;;;;13.52;11.57;;;;;;;20.54;88.93;101681.94;5008301;28;20158;-78
2023/07/10 08:08:10;;;;;;;13.50;9.93;;;;;;;20.52;88.44;101686.84;5005264;28;20041;-77
2023/07/10 08:10:42;;;;;;;12.50;10.82;;;;;;;20.49;88.84;101682.84;5007455;28;20568;-74
2023/07/10 08:13:10;;;;;;;16.52;12.02;;;;;;;20.49;89.77;101682.06;5007328;28;20125;-77
2023/07/10 08:15:36;;;;;;;14.27;11.60;;;;;;;20.40;90.08;101676.56;5007200;28;20069;-76
2023/07/10 08:18:02;;;;;;;14.27;10.25;;;;;;;20.40;90.12;101685.50;4998197;28;20038;-77
2023/07/10 08:20:29;;;;;;;11.75;9.93;;;;;;;20.38;89.26;101687.72;5013059;28;20034;-76
2023/07/10 08:22:54;;;;;;;15.75;10.05;;;;;;;20.42;88.75;101677.84;5022526;28;20040;-79
2023/07/10 08:25:20;;;;;;;14.52;9.27;;;;;;;20.41;88.62;101692.56;5024591;28;20038;-75
2023/07/10 08:27:47;;;;;;;11.20;8.55;;;;;;;20.40;87.94;101690.97;4990127;28;20495;-77
2023/07/10 08:30:14;;;;;;;7.93;7.13;;;;;;;20.38;87.52;101686.94;5002441;28;20114;-76
2023/07/10 08:32:40;;;;;;;8.93;6.88;;;;;;;20.31;86.95;101692.00;5021870;28;20048;-78
2023/07/10 08:35:07;;;;;;;10.80;7.85;;;;;;;20.30;87.17;101702.09;5017576;28;20034;-77
2023/07/10 08:37:37;;;;;;;10.77;6.95;;;;;;;20.26;86.97;101706.56;5023425;28;20042;-78
2023/07/10 08:40:10;;;;;;;12.20;8.70;;;;;;;20.20;87.24;101707.81;5002771;28;20037;-78
2023/07/10 08:42:38;;;;;;;9.43;6.72;;;;;;;20.11;87.88;101710.44;5005173;28;20038;-76
2023/07/10 08:45:05;;;;;;;16.27;9.23;;;;;;;20.03;88.49;101708.50;5006854;28;20036;-77
2023/07/10 08:47:42;;;;;;;10.75;8.05;;;;;;;20.03;88.15;101707.69;5008193;28;20510;-78
2023/07/10 08:50:21;;;;;;;12.95;8.43;;;;;;;20.01;88.22;101715.34;5017574;28;20045;-76
2023/07/10 08:53:00;;;;;;;13.20;10.48;;;;;;;20.00;89.50;101713.75;5000338;28;20041;-79
2023/07/10 08:55:31;;;;;;;10.65;8.20;;;;;;;19.95;88.26;101716.59;5017809;28;20034;-76
2023/07/10 08:58:01;;;;;;;12.75;8.27;;;;;;;20.00;88.91;101721.91;4987681;28;20034;-75
2023/07/10 09:00:42;;;;;;;13.32;8.40;;;;;;;20.00;87.81;101719.19;5016774;28;20114;-77
2023/07/10 09:03:41;;;;;;;14.05;8.43;;;;;;;20.06;88.26;101717.97;5004961;28;20494;-76
2023/07/10 09:06:17;;;;;;;11.23;7.25;;;;;;;20.22;88.25;101726.53;5020675;28;20026;-76
2023/07/10 09:08:46;;;;;;;12.02;7.90;;;;;;;20.39;87.20;101726.66;5003188;28;20532;-79
2023/07/10 09:11:13;;;;;;;10.73;7.85;;;;;;;20.65;87.33;101729.50;5005045;28;20132;-75
2023/07/10 09:13:46;;;;;;;10.13;7.05;;;;;;;20.85;85.06;101730.88;4986924;28;20049;-76
2023/07/10 09:16:17;;;;;;;9.88;5.35;;;;;;;21.11;84.97;101723.56;5001097;28;20708;-77
2023/07/10 09:19:05;;;;;;;8.15;5.80;;;;;;;21.25;83.17;101728.88;5002637;28;20092;-77
2023/07/10 09:21:35;;;;;;;7.05;5.70;;;;;;;21.18;83.95;101737.53;4997017;28;20018;-76
2023/07/10 09:24:04;;;;;;;8.70;5.75;;;;;;;21.16;85.18;101738.97;5001948;28;20121;-76
2023/07/10 09:26:38;;;;;;;9.23;6.28;;;;;;;21.32;85.27;101731.97;5001605;28;20042;-76
2023/07/10 09:29:10;;;;;;;10.55;5.10;;;;;;;21.47;80.78;101745.16;5001135;28;20038;-77
2023/07/10 09:32:08;;;;;;;7.90;4.50;;;;;;;21.72;83.38;101740.03;5004556;28;20041;-78
2023/07/10 09:34:34;;;;;;;7.65;5.13;;;;;;;22.05;84.08;101749.31;5019022;28;20057;-78
2023/07/10 09:37:05;;;;;;;10.35;5.10;;;;;;;22.14;78.56;101748.53;5020864;28;20033;-76
2023/07/10 09:39:32;;;;;;;7.88;5.15;;;;;;;22.10;78.19;101744.88;4999542;28;20416;-76
2023/07/10 09:42:00;;;;;;;8.50;5.70;;;;;;;22.01;77.97;101745.63;4999559;28;20022;-75
2023/07/10 09:44:37;;;;;;;6.47;3.97;;;;;;;22.09;77.88;101754.97;5007979;28;20103;-74
2023/07/10 09:47:09;;;;;;;6.57;4.32;;;;;;;22.26;77.42;101751.41;5000399;28;20038;-75
2023/07/10 09:49:55;;;;;;;6.15;4.60;;;;;;;22.48;76.71;101756.63;4992924;28;20045;-76
2023/07/10 09:52:31;;;;;;;7.78;4.75;;;;;;;22.69;77.99;101761.38;5016981;28;20107;-74
2023/07/10 09:54:59;;;;;;;6.90;4.32;;;;;;;22.85;75.35;101759.72;5016855;28;20384;-76
2023/07/10 09:57:25;;;;;;;6.88;3.92;;;;;;;22.91;77.07;101765.84;5002691;28;20051;-78
2023/07/10 09:59:56;;;;;;;7.63;4.25;;;;;;;22.70;74.23;101763.81;4998507;28;20569;-76
2023/07/10 10:02:32;;;;;;;7.68;4.35;;;;;;;22.47;73.35;101768.69;5011604;28;20081;-76
2023/07/10 10:05:24;;;;;;;9.48;3.92;;;;;;;22.56;74.79;101774.16;4988709;28;20034;-76
2023/07/10 10:07:52;;;;;;;9.10;4.60;;;;;;;22.73;74.27;101762.34;5000172;28;20073;-77
2023/07/10 10:10:27;;;;;;;6.43;3.85;;;;;;;22.95;73.73;101759.38;4980833;28;20129;-77
2023/07/10 10:13:00;;;;;;;8.30;3.50;;;;;;;22.90;72.91;101765.06;5006421;28;20040;-75
2023/07/10 10:15:36;;;;;;;6.18;3.60;;;;;;;22.78;71.21;101770.38;5016164;28;20038;-76
2023/07/10 10:18:04;;;;;;;7.55;3.50;;;;;;;22.92;72.14;101762.78;5018741;28;20037;-75
2023/07/10 10:20:34;;;;;;;5.78;3.60;;;;;;;23.01;71.73;101766.25;4988076;28;20403;-76
2023/07/10 10:23:00;;;;;;;5.00;3.28;;;;;;;23.03;71.57;101763.19;5022035;28;20088;-78
2023/07/10 10:25:40;;;;;;;8.43;3.80;;;;;;;23.03;69.41;101772.22;5008939;28;20033;-77
2023/07/10 10:28:24;;;;;;;8.05;3.60;;;;;;;23.19;71.01;101772.44;5006657;28;20581;-77
2023/07/10 10:31:01;;;;;;;6.35;3.72;;;;;;;23.34;71.61;101774.59;4989477;28;20073;-77
2023/07/10 10:33:55;;;;;;;5.13;3.10;;;;;;;23.54;69.10;101775.75;4998487;28;20042;-76
2023/07/10 10:36:44;;;;;;;5.30;2.97;;;;;;;23.48;69.57;101790.75;5005451;28;20430;-76
2023/07/10 10:39:31;;;;;;;5.53;3.08;;;;;;;23.62;69.83;101777.66;5007369;28;20046;-76
2023/07/10 10:42:03;;;;;;;5.03;3.30;;;;;;;23.58;66.60;101776.72;5002922;28;20046;-76
2023/07/10 10:44:44;;;;;;;4.70;2.63;;;;;;;23.69;69.26;101783.41;4989104;28;20388;-77
2023/07/10 10:47:13;;;;;;;6.28;2.90;;;;;;;23.87;65.43;101773.13;5023202;28;20030;-77
2023/07/10 10:49:57;;;;;;;5.82;3.05;;;;;;;24.00;64.61;101784.13;5009028;28;20038;-76
2023/07/10 10:52:37;;;;;;;4.68;2.97;;;;;;;24.01;70.11;101791.19;5003495;28;20042;-76
2023/07/10 10:55:16;;;;;;;5.22;2.88;;;;;;;23.93;65.48;101790.13;5021872;28;20037;-76
2023/07/10 10:57:49;;;;;;;5.10;3.05;;;;;;;24.24;69.72;101792.41;4994146;28;20044;-75
2023/07/10 11:00:17;;;;;;;4.07;2.60;;;;;;;24.29;63.97;101788.69;5019104;28;20053;-77
2023/07/10 11:03:17;;;;;;;4.32;2.65;;;;;;;24.34;64.24;101797.50;5012684;28;20057;-76
2023/07/10 11:05:47;;;;;;;4.00;2.28;;;;;;;24.26;63.27;101805.78;5014386;28;20156;-75
2023/07/10 11:08:23;;;;;;;4.72;2.60;;;;;;;24.03;61.73;101800.66;5003340;28;20552;-75
2023/07/10 11:10:51;;;;;;;5.18;2.95;;;;;;;23.91;60.35;101800.59;5017498;28;20042;-76
2023/07/10 11:13:32;;;;;;;4.28;2.95;;;;;;;23.77;60.76;101797.34;5020769;28;20041;-78
2023/07/10 11:16:01;;;;;;;3.90;2.67;;;;;;;23.92;63.61;101807.69;5003068;28;20084;-75
2023/07/10 11:18:27;;;;;;;5.00;2.92;;;;;;;23.99;65.64;101809.88;5017345;28;20049;-75
2023/07/10 11:20:53;;;;;;;4.40;2.70;;;;;;;23.99;65.51;101812.63;5003202;28;20038;-73
2023/07/10 11:23:33;;;;;;;4.20;2.85;;;;;;;24.09;65.10;101818.47;5016143;28;20058;-77
2023/07/10 11:26:03;;;;;;;5.50;3.33;;;;;;;24.19;63.74;101812.59;5013925;28;20053;-78
2023/07/10 11:28:31;;;;;;;5.70;2.83;;;;;;;24.31;66.18;101819.25;5018748;28;20084;-77
2023/07/10 11:31:16;;;;;;;7.80;3.60;;;;;;;24.35;63.20;101812.00;5003926;28;20092;-75
2023/07/10 11:33:43;;;;;;;4.53;3.05;;;;;;;24.34;65.04;101804.94;5003632;28;20170;-76
2023/07/10 11:36:18;;;;;;;11.63;3.28;;;;;;;24.20;61.42;101814.19;4993933;28;20467;-78